ZSMUL FZSA-FLKK
Flight info
| Callsign | ZSMUL |
|---|---|
| Flight time | 2h 9m |
| Altitude | 17000 |
| Route | KMB ATS4 APEBI J5 LUB A406 VND/N0211F160 A409 VLS |
| Aircraft | DC6/M-SDFGRWY/S |
Departure
| Time | 2026-04-29 18:26 |
|---|---|
| Airport | Kamina Air Base (FZSA) |
Arrival
| Time | 2026-04-29 20:35 |
|---|---|
| Airport | Kenneth Kaunda International Airport (FLKK) |
| Time | Latitude | Longitude | Altitude | Speed | Heading |
|---|---|---|---|---|---|
| 2026-04-29 18:08 | -8.64475 | 25.25084 | 3605 ft | 0 kts | 274° |
| 2026-04-29 18:19 | -8.64475 | 25.25083 | 3602 ft | 0 kts | 262° |
| 2026-04-29 18:20 | -8.64477 | 25.25079 | 3602 ft | 1 kts | 240° |
| 2026-04-29 18:20 | -8.64484 | 25.25071 | 3595 ft | 3 kts | 224° |
| 2026-04-29 18:20 | -8.64503 | 25.25054 | 3605 ft | 5 kts | 221° |
| 2026-04-29 18:20 | -8.64537 | 25.25032 | 3604 ft | 7 kts | 211° |
| 2026-04-29 18:21 | -8.64574 | 25.25011 | 3604 ft | 5 kts | 206° |
| 2026-04-29 18:21 | -8.64603 | 25.24997 | 3603 ft | 4 kts | 208° |
| 2026-04-29 18:21 | -8.64624 | 25.24985 | 3603 ft | 4 kts | 203° |
| 2026-04-29 18:21 | -8.64657 | 25.24980 | 3603 ft | 6 kts | 172° |
| 2026-04-29 18:22 | -8.64708 | 25.24993 | 3599 ft | 9 kts | 165° |
| 2026-04-29 18:22 | -8.64782 | 25.25011 | 3601 ft | 12 kts | 166° |
| 2026-04-29 18:22 | -8.64854 | 25.25027 | 3604 ft | 9 kts | 175° |
| 2026-04-29 18:22 | -8.64907 | 25.25017 | 3604 ft | 7 kts | 206° |
| 2026-04-29 18:23 | -8.64958 | 25.24990 | 3603 ft | 11 kts | 210° |
| 2026-04-29 18:23 | -8.65030 | 25.24939 | 3604 ft | 13 kts | 240° |
| 2026-04-29 18:23 | -8.65015 | 25.24868 | 3603 ft | 10 kts | 302° |
| 2026-04-29 18:23 | -8.64934 | 25.24732 | 3604 ft | 40 kts | 301° |
| 2026-04-29 18:24 | -8.64722 | 25.24384 | 3603 ft | 75 kts | 301° |
| 2026-04-29 18:24 | -8.64398 | 25.23847 | 3606 ft | 103 kts | 302° |
| 2026-04-29 18:24 | -8.63981 | 25.23166 | 3625 ft | 122 kts | 303° |
| 2026-04-29 18:24 | -8.63538 | 25.22386 | 3688 ft | 133 kts | 290° |
| 2026-04-29 18:25 | -8.63461 | 25.21445 | 3760 ft | 140 kts | 262° |
| 2026-04-29 18:25 | -8.63806 | 25.20501 | 3849 ft | 148 kts | 239° |
| 2026-04-29 18:25 | -8.64552 | 25.19755 | 3941 ft | 155 kts | 208° |
| 2026-04-29 18:25 | -8.65601 | 25.19488 | 4014 ft | 161 kts | 176° |
| 2026-04-29 18:26 | -8.66672 | 25.19809 | 4145 ft | 162 kts | 149° |
| 2026-04-29 18:26 | -8.67663 | 25.20382 | 4278 ft | 166 kts | 147° |
| 2026-04-29 18:26 | -8.68662 | 25.20981 | 4410 ft | 168 kts | 147° |
| 2026-04-29 18:26 | -8.69666 | 25.21605 | 4518 ft | 171 kts | 145° |
| 2026-04-29 18:27 | -8.70666 | 25.22242 | 4677 ft | 170 kts | 145° |
| 2026-04-29 18:27 | -8.71664 | 25.22894 | 4754 ft | 176 kts | 145° |
| 2026-04-29 18:27 | -8.72705 | 25.23566 | 4858 ft | 179 kts | 145° |
| 2026-04-29 18:27 | -8.73759 | 25.24250 | 4927 ft | 182 kts | 145° |
| 2026-04-29 18:28 | -8.74827 | 25.24947 | 5045 ft | 184 kts | 145° |
| 2026-04-29 18:28 | -8.75903 | 25.25652 | 5177 ft | 184 kts | 144° |
| 2026-04-29 18:28 | -8.76980 | 25.26350 | 5350 ft | 183 kts | 145° |
| 2026-04-29 18:28 | -8.78051 | 25.27046 | 5513 ft | 183 kts | 145° |
| 2026-04-29 18:29 | -8.79121 | 25.27742 | 5678 ft | 183 kts | 145° |
| 2026-04-29 18:29 | -8.79828 | 25.28204 | 5779 ft | 183 kts | 145° |
| 2026-04-29 18:29 | -8.81240 | 25.29123 | 6003 ft | 182 kts | 145° |
| 2026-04-29 18:29 | -8.82299 | 25.29817 | 6158 ft | 181 kts | 145° |
| 2026-04-29 18:30 | -8.83442 | 25.30346 | 6255 ft | 185 kts | 167° |
| 2026-04-29 18:30 | -8.84728 | 25.30207 | 6352 ft | 192 kts | 199° |
| 2026-04-29 18:30 | -8.85864 | 25.29510 | 6511 ft | 190 kts | 209° |
| 2026-04-29 18:30 | -8.87039 | 25.28931 | 6646 ft | 187 kts | 196° |
| 2026-04-29 18:31 | -8.88295 | 25.28644 | 6758 ft | 184 kts | 181° |
| 2026-04-29 18:31 | -8.89561 | 25.28717 | 6888 ft | 181 kts | 169° |
| 2026-04-29 18:31 | -8.90793 | 25.28876 | 7014 ft | 181 kts | 170° |
| 2026-04-29 18:31 | -8.92044 | 25.29018 | 7142 ft | 181 kts | 170° |
| 2026-04-29 18:32 | -8.93293 | 25.29162 | 7272 ft | 180 kts | 171° |
| 2026-04-29 18:32 | -8.95789 | 25.29445 | 7504 ft | 181 kts | 171° |
| 2026-04-29 18:32 | -8.97044 | 25.29589 | 7638 ft | 182 kts | 170° |
| 2026-04-29 18:33 | -8.98306 | 25.29727 | 7778 ft | 183 kts | 170° |
| 2026-04-29 18:33 | -8.99569 | 25.29871 | 7913 ft | 183 kts | 170° |
| 2026-04-29 18:33 | -9.00816 | 25.30014 | 8046 ft | 183 kts | 171° |
| 2026-04-29 18:33 | -9.02082 | 25.30155 | 8186 ft | 183 kts | 170° |
| 2026-04-29 18:34 | -9.03346 | 25.30302 | 8318 ft | 183 kts | 170° |
| 2026-04-29 18:34 | -9.04182 | 25.30397 | 8411 ft | 183 kts | 171° |
| 2026-04-29 18:34 | -9.05880 | 25.30583 | 8596 ft | 183 kts | 170° |
| 2026-04-29 18:34 | -9.07147 | 25.30728 | 8744 ft | 184 kts | 171° |
| 2026-04-29 18:35 | -9.08416 | 25.30870 | 8893 ft | 184 kts | 170° |
| 2026-04-29 18:35 | -9.09688 | 25.31016 | 9024 ft | 184 kts | 171° |
| 2026-04-29 18:35 | -9.10955 | 25.31158 | 9165 ft | 183 kts | 171° |
| 2026-04-29 18:35 | -9.12206 | 25.31301 | 9307 ft | 183 kts | 171° |
| 2026-04-29 18:36 | -9.13473 | 25.31443 | 9463 ft | 183 kts | 171° |
| 2026-04-29 18:36 | -9.14738 | 25.31587 | 9605 ft | 183 kts | 171° |
| 2026-04-29 18:36 | -9.16003 | 25.31729 | 9730 ft | 183 kts | 171° |
| 2026-04-29 18:36 | -9.17266 | 25.31873 | 9852 ft | 183 kts | 171° |
| 2026-04-29 18:37 | -9.18530 | 25.32015 | 9967 ft | 183 kts | 171° |
| 2026-04-29 18:37 | -9.19796 | 25.32159 | 10071 ft | 183 kts | 171° |
| 2026-04-29 18:37 | -9.21060 | 25.32302 | 10174 ft | 183 kts | 171° |
| 2026-04-29 18:37 | -9.22313 | 25.32443 | 10275 ft | 184 kts | 171° |
| 2026-04-29 18:38 | -9.23584 | 25.32588 | 10368 ft | 184 kts | 171° |
| 2026-04-29 18:38 | -9.24857 | 25.32731 | 10461 ft | 184 kts | 171° |
| 2026-04-29 18:38 | -9.26132 | 25.32876 | 10545 ft | 185 kts | 171° |
| 2026-04-29 18:38 | -9.27410 | 25.33020 | 10632 ft | 186 kts | 171° |
| 2026-04-29 18:39 | -9.28699 | 25.33166 | 10736 ft | 187 kts | 171° |
| 2026-04-29 18:39 | -9.29998 | 25.33313 | 10847 ft | 188 kts | 171° |
| 2026-04-29 18:39 | -9.31304 | 25.33461 | 10951 ft | 189 kts | 171° |
| 2026-04-29 18:39 | -9.32600 | 25.33607 | 11062 ft | 190 kts | 171° |
| 2026-04-29 18:40 | -9.33918 | 25.33757 | 11173 ft | 191 kts | 171° |
| 2026-04-29 18:40 | -9.35241 | 25.33906 | 11280 ft | 192 kts | 171° |
| 2026-04-29 18:40 | -9.36567 | 25.34057 | 11388 ft | 192 kts | 171° |
| 2026-04-29 18:40 | -9.37898 | 25.34208 | 11493 ft | 193 kts | 171° |
| 2026-04-29 18:41 | -9.41922 | 25.34664 | 11837 ft | 195 kts | 171° |
| 2026-04-29 18:41 | -9.43256 | 25.34816 | 11952 ft | 196 kts | 171° |
| 2026-04-29 18:42 | -9.44611 | 25.34968 | 12067 ft | 196 kts | 171° |
| 2026-04-29 18:42 | -9.45973 | 25.35122 | 12184 ft | 197 kts | 171° |
| 2026-04-29 18:42 | -9.47334 | 25.35277 | 12300 ft | 197 kts | 171° |
| 2026-04-29 18:42 | -9.48700 | 25.35431 | 12410 ft | 198 kts | 172° |
| 2026-04-29 18:43 | -9.50068 | 25.35587 | 12516 ft | 198 kts | 171° |
| 2026-04-29 18:43 | -9.51439 | 25.35742 | 12627 ft | 199 kts | 172° |
| 2026-04-29 18:43 | -9.52815 | 25.35898 | 12742 ft | 199 kts | 171° |
| 2026-04-29 18:43 | -9.54179 | 25.36053 | 12857 ft | 200 kts | 172° |
| 2026-04-29 18:44 | -9.55565 | 25.36209 | 12975 ft | 201 kts | 172° |
| 2026-04-29 18:44 | -9.56955 | 25.36367 | 13092 ft | 201 kts | 172° |
| 2026-04-29 18:44 | -9.58349 | 25.36525 | 13205 ft | 202 kts | 172° |
| 2026-04-29 18:44 | -9.59745 | 25.36684 | 13302 ft | 202 kts | 172° |
| 2026-04-29 18:45 | -9.61144 | 25.36841 | 13428 ft | 202 kts | 172° |
| 2026-04-29 18:45 | -9.62543 | 25.37002 | 13540 ft | 203 kts | 172° |
| 2026-04-29 18:45 | -9.63944 | 25.37159 | 13653 ft | 203 kts | 172° |
| 2026-04-29 18:45 | -9.65347 | 25.37320 | 13753 ft | 203 kts | 172° |
| 2026-04-29 18:46 | -9.66751 | 25.37477 | 13853 ft | 203 kts | 172° |
| 2026-04-29 18:46 | -9.68137 | 25.37636 | 13940 ft | 203 kts | 172° |
| 2026-04-29 18:46 | -9.69540 | 25.37794 | 14029 ft | 203 kts | 172° |
| 2026-04-29 18:46 | -9.70944 | 25.37954 | 14118 ft | 203 kts | 172° |
| 2026-04-29 18:47 | -9.72350 | 25.38113 | 14205 ft | 204 kts | 172° |
| 2026-04-29 18:47 | -9.73763 | 25.38274 | 14312 ft | 205 kts | 172° |
| 2026-04-29 18:47 | -9.75180 | 25.38435 | 14412 ft | 205 kts | 172° |
| 2026-04-29 18:47 | -9.76599 | 25.38596 | 14511 ft | 206 kts | 172° |
| 2026-04-29 18:48 | -9.78022 | 25.38757 | 14614 ft | 206 kts | 172° |
| 2026-04-29 18:48 | -9.79449 | 25.38920 | 14716 ft | 206 kts | 172° |
| 2026-04-29 18:48 | -9.80878 | 25.39081 | 14821 ft | 207 kts | 172° |
| 2026-04-29 18:48 | -9.82286 | 25.39242 | 14911 ft | 207 kts | 172° |
| 2026-04-29 18:49 | -9.83717 | 25.39404 | 15009 ft | 207 kts | 173° |
| 2026-04-29 18:49 | -9.85148 | 25.39566 | 15105 ft | 207 kts | 172° |
| 2026-04-29 18:49 | -9.86582 | 25.39729 | 15198 ft | 207 kts | 173° |
| 2026-04-29 18:49 | -9.88015 | 25.39892 | 15292 ft | 207 kts | 172° |
| 2026-04-29 18:50 | -9.89449 | 25.40055 | 15383 ft | 207 kts | 173° |
| 2026-04-29 18:50 | -9.90884 | 25.40218 | 15475 ft | 207 kts | 172° |
| 2026-04-29 18:50 | -9.92319 | 25.40382 | 15547 ft | 208 kts | 173° |
| 2026-04-29 18:50 | -9.93736 | 25.40541 | 15636 ft | 208 kts | 173° |
| 2026-04-29 18:51 | -9.95171 | 25.40706 | 15720 ft | 208 kts | 173° |
| 2026-04-29 18:51 | -9.96607 | 25.40867 | 15800 ft | 208 kts | 173° |
| 2026-04-29 18:51 | -9.98043 | 25.41032 | 15878 ft | 208 kts | 173° |
| 2026-04-29 18:51 | -9.99481 | 25.41194 | 15954 ft | 208 kts | 173° |
| 2026-04-29 18:52 | -10.00919 | 25.41359 | 16030 ft | 208 kts | 173° |
| 2026-04-29 18:52 | -10.02292 | 25.41778 | 16031 ft | 208 kts | 148° |
| 2026-04-29 18:52 | -10.03315 | 25.42796 | 16077 ft | 207 kts | 122° |
| 2026-04-29 18:52 | -10.04102 | 25.44007 | 16190 ft | 205 kts | 123° |
| 2026-04-29 18:53 | -10.04945 | 25.45156 | 16272 ft | 206 kts | 127° |
| 2026-04-29 18:53 | -10.05840 | 25.46314 | 16266 ft | 213 kts | 126° |
| 2026-04-29 18:53 | -10.06757 | 25.47518 | 16250 ft | 219 kts | 126° |
| 2026-04-29 18:53 | -10.07698 | 25.48749 | 16267 ft | 223 kts | 126° |
| 2026-04-29 18:54 | -10.08652 | 25.50002 | 16299 ft | 226 kts | 126° |
| 2026-04-29 18:54 | -10.09619 | 25.51271 | 16352 ft | 228 kts | 126° |
| 2026-04-29 18:54 | -10.10596 | 25.52551 | 16397 ft | 231 kts | 126° |
| 2026-04-29 18:54 | -10.11580 | 25.53844 | 16455 ft | 232 kts | 126° |
| 2026-04-29 18:55 | -10.12570 | 25.55143 | 16520 ft | 233 kts | 126° |
| 2026-04-29 18:55 | -10.13552 | 25.56430 | 16604 ft | 233 kts | 126° |
| 2026-04-29 18:55 | -10.14537 | 25.57721 | 16749 ft | 230 kts | 126° |
| 2026-04-29 18:55 | -10.15511 | 25.59002 | 16870 ft | 228 kts | 126° |
| 2026-04-29 18:56 | -10.16481 | 25.60274 | 16978 ft | 227 kts | 126° |
| 2026-04-29 18:56 | -10.17448 | 25.61543 | 17036 ft | 229 kts | 126° |
| 2026-04-29 18:56 | -10.18430 | 25.62833 | 17037 ft | 232 kts | 126° |
| 2026-04-29 18:56 | -10.19414 | 25.64128 | 17042 ft | 231 kts | 126° |
| 2026-04-29 18:57 | -10.20394 | 25.65415 | 17032 ft | 230 kts | 126° |
| 2026-04-29 18:57 | -10.21358 | 25.66680 | 17032 ft | 229 kts | 126° |
| 2026-04-29 18:57 | -10.22333 | 25.67960 | 17029 ft | 229 kts | 126° |
| 2026-04-29 18:57 | -10.23303 | 25.69235 | 17033 ft | 227 kts | 126° |
| 2026-04-29 18:58 | -10.24270 | 25.70502 | 17031 ft | 227 kts | 126° |
| 2026-04-29 18:58 | -10.25229 | 25.71765 | 17032 ft | 226 kts | 125° |
| 2026-04-29 18:58 | -10.26186 | 25.73026 | 17036 ft | 225 kts | 126° |
| 2026-04-29 18:58 | -10.27141 | 25.74277 | 17034 ft | 224 kts | 126° |
| 2026-04-29 18:59 | -10.28090 | 25.75525 | 17038 ft | 223 kts | 126° |
| 2026-04-29 18:59 | -10.29023 | 25.76751 | 17037 ft | 222 kts | 126° |
| 2026-04-29 18:59 | -10.29964 | 25.77989 | 17039 ft | 221 kts | 126° |
| 2026-04-29 18:59 | -10.30904 | 25.79225 | 17035 ft | 221 kts | 126° |
| 2026-04-29 19:00 | -10.31840 | 25.80455 | 17046 ft | 220 kts | 126° |
| 2026-04-29 19:00 | -10.32773 | 25.81683 | 17040 ft | 219 kts | 126° |
| 2026-04-29 19:00 | -10.33702 | 25.82908 | 17048 ft | 218 kts | 126° |
| 2026-04-29 19:00 | -10.34629 | 25.84126 | 17033 ft | 218 kts | 126° |
| 2026-04-29 19:01 | -10.35553 | 25.85337 | 17043 ft | 217 kts | 126° |
| 2026-04-29 19:01 | -10.36457 | 25.86531 | 17049 ft | 215 kts | 126° |
| 2026-04-29 19:01 | -10.37373 | 25.87733 | 17046 ft | 215 kts | 126° |
| 2026-04-29 19:01 | -10.38283 | 25.88933 | 17046 ft | 214 kts | 126° |
| 2026-04-29 19:02 | -10.39191 | 25.90130 | 17039 ft | 213 kts | 126° |
| 2026-04-29 19:02 | -10.39790 | 25.90918 | 17045 ft | 212 kts | 126° |
| 2026-04-29 19:02 | -10.40995 | 25.92502 | 17046 ft | 211 kts | 126° |
| 2026-04-29 19:02 | -10.41892 | 25.93682 | 17047 ft | 210 kts | 126° |
| 2026-04-29 19:03 | -10.42779 | 25.94855 | 17054 ft | 208 kts | 126° |
| 2026-04-29 19:03 | -10.43651 | 25.95999 | 17030 ft | 207 kts | 126° |
| 2026-04-29 19:03 | -10.44528 | 25.97153 | 17046 ft | 207 kts | 126° |
| 2026-04-29 19:03 | -10.45408 | 25.98313 | 17051 ft | 208 kts | 126° |
| 2026-04-29 19:04 | -10.46289 | 25.99477 | 17056 ft | 208 kts | 126° |
| 2026-04-29 19:04 | -10.47175 | 26.00644 | 17060 ft | 209 kts | 126° |
| 2026-04-29 19:04 | -10.48063 | 26.01813 | 17061 ft | 209 kts | 126° |
| 2026-04-29 19:04 | -10.48953 | 26.02984 | 17061 ft | 210 kts | 126° |
| 2026-04-29 19:05 | -10.49845 | 26.04160 | 17060 ft | 210 kts | 126° |
| 2026-04-29 19:05 | -10.50740 | 26.05340 | 17054 ft | 211 kts | 126° |
| 2026-04-29 19:05 | -10.51623 | 26.06509 | 17060 ft | 212 kts | 126° |
| 2026-04-29 19:05 | -10.52526 | 26.07694 | 17058 ft | 212 kts | 126° |
| 2026-04-29 19:06 | -10.53429 | 26.08884 | 17059 ft | 213 kts | 126° |
| 2026-04-29 19:06 | -10.54333 | 26.10077 | 17061 ft | 214 kts | 126° |
| 2026-04-29 19:06 | -10.56157 | 26.12483 | 17063 ft | 216 kts | 126° |
| 2026-04-29 19:07 | -10.57075 | 26.13693 | 17061 ft | 216 kts | 126° |
| 2026-04-29 19:07 | -10.57683 | 26.14496 | 17065 ft | 217 kts | 126° |
| 2026-04-29 19:07 | -10.58918 | 26.16123 | 17060 ft | 218 kts | 126° |
| 2026-04-29 19:07 | -10.59831 | 26.17330 | 17063 ft | 219 kts | 126° |
| 2026-04-29 19:08 | -10.60760 | 26.18556 | 17064 ft | 219 kts | 126° |
| 2026-04-29 19:08 | -10.61694 | 26.19787 | 17058 ft | 220 kts | 126° |
| 2026-04-29 19:08 | -10.62631 | 26.21024 | 17061 ft | 221 kts | 126° |
| 2026-04-29 19:08 | -10.63569 | 26.22264 | 17062 ft | 222 kts | 126° |
| 2026-04-29 19:09 | -10.64511 | 26.23505 | 17059 ft | 222 kts | 126° |
| 2026-04-29 19:09 | -10.65457 | 26.24754 | 17064 ft | 223 kts | 126° |
| 2026-04-29 19:09 | -10.66405 | 26.26009 | 17057 ft | 224 kts | 126° |
| 2026-04-29 19:09 | -10.67357 | 26.27263 | 17057 ft | 225 kts | 126° |
| 2026-04-29 19:10 | -10.68310 | 26.28523 | 17059 ft | 225 kts | 126° |
| 2026-04-29 19:10 | -10.69254 | 26.29770 | 17060 ft | 226 kts | 126° |
| 2026-04-29 19:10 | -10.70213 | 26.31037 | 17060 ft | 227 kts | 126° |
| 2026-04-29 19:10 | -10.71175 | 26.32309 | 17062 ft | 227 kts | 126° |
| 2026-04-29 19:11 | -10.72141 | 26.33585 | 17064 ft | 228 kts | 126° |
| 2026-04-29 19:11 | -10.73107 | 26.34863 | 17061 ft | 228 kts | 126° |
| 2026-04-29 19:11 | -10.74077 | 26.36141 | 17058 ft | 229 kts | 126° |
| 2026-04-29 19:11 | -10.75047 | 26.37426 | 17058 ft | 229 kts | 126° |
| 2026-04-29 19:12 | -10.76021 | 26.38713 | 17063 ft | 230 kts | 126° |
| 2026-04-29 19:12 | -10.76996 | 26.40002 | 17065 ft | 230 kts | 126° |
| 2026-04-29 19:12 | -10.77961 | 26.41278 | 17061 ft | 231 kts | 126° |
| 2026-04-29 19:12 | -10.78621 | 26.42152 | 17064 ft | 231 kts | 126° |
| 2026-04-29 19:13 | -10.79917 | 26.43865 | 17065 ft | 231 kts | 126° |
| 2026-04-29 19:13 | -10.80899 | 26.45164 | 17060 ft | 232 kts | 126° |
| 2026-04-29 19:13 | -10.81879 | 26.46463 | 17064 ft | 232 kts | 126° |
| 2026-04-29 19:13 | -10.82863 | 26.47763 | 17065 ft | 232 kts | 126° |
| 2026-04-29 19:14 | -10.83849 | 26.49066 | 17061 ft | 233 kts | 126° |
| 2026-04-29 19:14 | -10.84831 | 26.50369 | 17056 ft | 232 kts | 126° |
| 2026-04-29 19:14 | -10.85816 | 26.51665 | 17054 ft | 231 kts | 126° |
| 2026-04-29 19:14 | -10.86781 | 26.52948 | 17054 ft | 231 kts | 126° |
| 2026-04-29 19:15 | -10.87761 | 26.54246 | 17055 ft | 232 kts | 126° |
| 2026-04-29 19:15 | -10.88742 | 26.55546 | 17054 ft | 232 kts | 126° |
| 2026-04-29 19:15 | -10.89725 | 26.56846 | 17058 ft | 232 kts | 126° |
| 2026-04-29 19:15 | -10.90708 | 26.58149 | 17056 ft | 232 kts | 126° |
| 2026-04-29 19:16 | -10.91692 | 26.59452 | 17056 ft | 232 kts | 126° |
| 2026-04-29 19:16 | -10.92678 | 26.60755 | 17058 ft | 232 kts | 126° |
| 2026-04-29 19:16 | -10.93661 | 26.62061 | 17056 ft | 232 kts | 126° |
| 2026-04-29 19:16 | -10.94646 | 26.63365 | 17056 ft | 232 kts | 126° |
| 2026-04-29 19:17 | -10.95617 | 26.64653 | 17057 ft | 233 kts | 126° |
| 2026-04-29 19:17 | -10.96603 | 26.65959 | 17057 ft | 233 kts | 126° |
| 2026-04-29 19:17 | -10.97589 | 26.67265 | 17058 ft | 233 kts | 126° |
| 2026-04-29 19:17 | -10.98572 | 26.68571 | 17054 ft | 233 kts | 125° |
| 2026-04-29 19:18 | -10.99555 | 26.69876 | 17056 ft | 232 kts | 126° |
| 2026-04-29 19:18 | -11.00209 | 26.70737 | 17055 ft | 232 kts | 126° |
| 2026-04-29 19:18 | -11.01526 | 26.72485 | 17056 ft | 233 kts | 126° |
| 2026-04-29 19:18 | -11.02510 | 26.73792 | 17054 ft | 232 kts | 125° |
| 2026-04-29 19:19 | -11.03495 | 26.75098 | 17054 ft | 233 kts | 126° |
| 2026-04-29 19:19 | -11.04466 | 26.76386 | 17055 ft | 233 kts | 125° |
| 2026-04-29 19:19 | -11.05452 | 26.77695 | 17056 ft | 233 kts | 126° |
| 2026-04-29 19:19 | -11.06439 | 26.79003 | 17053 ft | 233 kts | 125° |
| 2026-04-29 19:20 | -11.07426 | 26.80315 | 17053 ft | 233 kts | 125° |
| 2026-04-29 19:20 | -11.08414 | 26.81625 | 17054 ft | 233 kts | 125° |
| 2026-04-29 19:20 | -11.09401 | 26.82937 | 17057 ft | 234 kts | 126° |
| 2026-04-29 19:20 | -11.10391 | 26.84250 | 17054 ft | 234 kts | 125° |
| 2026-04-29 19:21 | -11.11380 | 26.85564 | 17049 ft | 234 kts | 125° |
| 2026-04-29 19:21 | -11.12357 | 26.86861 | 17050 ft | 234 kts | 125° |
| 2026-04-29 19:21 | -11.13347 | 26.88177 | 17055 ft | 234 kts | 125° |
| 2026-04-29 19:21 | -11.14338 | 26.89491 | 17057 ft | 234 kts | 125° |
| 2026-04-29 19:22 | -11.15329 | 26.90809 | 17056 ft | 234 kts | 125° |
| 2026-04-29 19:22 | -11.16322 | 26.92127 | 17056 ft | 235 kts | 125° |
| 2026-04-29 19:22 | -11.17315 | 26.93446 | 17060 ft | 235 kts | 125° |
| 2026-04-29 19:22 | -11.18311 | 26.94767 | 17056 ft | 235 kts | 125° |
| 2026-04-29 19:23 | -11.19306 | 26.96089 | 17059 ft | 235 kts | 125° |
| 2026-04-29 19:23 | -11.20287 | 26.97392 | 17059 ft | 235 kts | 125° |
| 2026-04-29 19:23 | -11.21282 | 26.98714 | 17056 ft | 235 kts | 125° |
| 2026-04-29 19:23 | -11.22277 | 27.00035 | 17055 ft | 235 kts | 125° |
| 2026-04-29 19:24 | -11.23271 | 27.01355 | 17056 ft | 235 kts | 125° |
| 2026-04-29 19:24 | -11.24265 | 27.02676 | 17054 ft | 235 kts | 125° |
| 2026-04-29 19:24 | -11.25259 | 27.03997 | 17056 ft | 235 kts | 125° |
| 2026-04-29 19:24 | -11.26252 | 27.05319 | 17061 ft | 235 kts | 125° |
| 2026-04-29 19:25 | -11.27247 | 27.06640 | 17062 ft | 235 kts | 125° |
| 2026-04-29 19:25 | -11.28242 | 27.07963 | 17063 ft | 235 kts | 125° |
| 2026-04-29 19:25 | -11.29236 | 27.09285 | 17066 ft | 235 kts | 125° |
| 2026-04-29 19:25 | -11.30219 | 27.10591 | 17061 ft | 236 kts | 125° |
| 2026-04-29 19:26 | -11.31215 | 27.11916 | 17060 ft | 236 kts | 125° |
| 2026-04-29 19:26 | -11.32214 | 27.13243 | 17063 ft | 236 kts | 125° |
| 2026-04-29 19:26 | -11.33210 | 27.14569 | 17061 ft | 236 kts | 125° |
| 2026-04-29 19:26 | -11.34207 | 27.15896 | 17063 ft | 236 kts | 125° |
| 2026-04-29 19:27 | -11.35205 | 27.17223 | 17064 ft | 236 kts | 125° |
| 2026-04-29 19:27 | -11.36201 | 27.18551 | 17062 ft | 236 kts | 125° |
| 2026-04-29 19:27 | -11.37202 | 27.19880 | 17067 ft | 236 kts | 125° |
| 2026-04-29 19:27 | -11.38186 | 27.21192 | 17069 ft | 236 kts | 125° |
| 2026-04-29 19:28 | -11.39184 | 27.22520 | 17064 ft | 236 kts | 125° |
| 2026-04-29 19:28 | -11.40184 | 27.23851 | 17065 ft | 236 kts | 125° |
| 2026-04-29 19:28 | -11.41181 | 27.25180 | 17069 ft | 236 kts | 125° |
| 2026-04-29 19:28 | -11.42181 | 27.26510 | 17066 ft | 236 kts | 125° |
| 2026-04-29 19:29 | -11.43179 | 27.27841 | 17069 ft | 236 kts | 124° |
| 2026-04-29 19:29 | -11.44179 | 27.29172 | 17069 ft | 236 kts | 125° |
| 2026-04-29 19:29 | -11.45177 | 27.30502 | 17071 ft | 237 kts | 124° |
| 2026-04-29 19:29 | -11.46177 | 27.31835 | 17070 ft | 237 kts | 125° |
| 2026-04-29 19:30 | -11.47164 | 27.33148 | 17068 ft | 236 kts | 124° |
| 2026-04-29 19:30 | -11.48163 | 27.34482 | 17068 ft | 236 kts | 124° |
| 2026-04-29 19:30 | -11.49162 | 27.35813 | 17069 ft | 236 kts | 124° |
| 2026-04-29 19:30 | -11.50160 | 27.37144 | 17068 ft | 236 kts | 124° |
| 2026-04-29 19:31 | -11.51159 | 27.38475 | 17066 ft | 236 kts | 124° |
| 2026-04-29 19:31 | -11.52158 | 27.39808 | 17067 ft | 237 kts | 124° |
| 2026-04-29 19:31 | -11.53157 | 27.41141 | 17070 ft | 237 kts | 124° |
| 2026-04-29 19:31 | -11.54158 | 27.42475 | 17064 ft | 237 kts | 124° |
| 2026-04-29 19:32 | -11.55156 | 27.43806 | 17069 ft | 236 kts | 124° |
| 2026-04-29 19:32 | -11.56140 | 27.45119 | 17064 ft | 236 kts | 124° |
| 2026-04-29 19:32 | -11.57137 | 27.46451 | 17063 ft | 236 kts | 124° |
| 2026-04-29 19:32 | -11.58136 | 27.47782 | 17065 ft | 236 kts | 124° |
| 2026-04-29 19:33 | -11.59132 | 27.49113 | 17063 ft | 236 kts | 124° |
| 2026-04-29 19:33 | -11.60138 | 27.50439 | 17061 ft | 236 kts | 127° |
| 2026-04-29 19:33 | -11.61360 | 27.51566 | 17061 ft | 238 kts | 140° |
| 2026-04-29 19:33 | -11.62684 | 27.52581 | 17062 ft | 238 kts | 140° |
| 2026-04-29 19:34 | -11.63980 | 27.53626 | 17067 ft | 238 kts | 138° |
| 2026-04-29 19:34 | -11.65246 | 27.54675 | 17065 ft | 238 kts | 138° |
| 2026-04-29 19:34 | -11.66536 | 27.55733 | 17065 ft | 238 kts | 138° |
| 2026-04-29 19:34 | -11.67828 | 27.56791 | 17066 ft | 238 kts | 138° |
| 2026-04-29 19:35 | -11.69122 | 27.57848 | 17067 ft | 238 kts | 138° |
| 2026-04-29 19:35 | -11.70416 | 27.58909 | 17066 ft | 239 kts | 138° |
| 2026-04-29 19:35 | -11.71711 | 27.59969 | 17068 ft | 239 kts | 138° |
| 2026-04-29 19:35 | -11.73007 | 27.61030 | 17068 ft | 239 kts | 138° |
| 2026-04-29 19:36 | -11.74303 | 27.62092 | 17066 ft | 239 kts | 138° |
| 2026-04-29 19:36 | -11.75584 | 27.63140 | 17063 ft | 239 kts | 138° |
| 2026-04-29 19:36 | -11.76882 | 27.64205 | 17064 ft | 239 kts | 138° |
| 2026-04-29 19:36 | -11.78180 | 27.65267 | 17066 ft | 239 kts | 138° |
| 2026-04-29 19:37 | -11.79479 | 27.66333 | 17070 ft | 240 kts | 138° |
| 2026-04-29 19:37 | -11.80340 | 27.67038 | 17070 ft | 240 kts | 138° |
| 2026-04-29 19:37 | -11.82079 | 27.68464 | 17066 ft | 240 kts | 138° |
| 2026-04-29 19:37 | -11.83379 | 27.69529 | 17067 ft | 240 kts | 138° |
| 2026-04-29 19:38 | -11.84680 | 27.70596 | 17067 ft | 240 kts | 138° |
| 2026-04-29 19:38 | -11.85982 | 27.71663 | 17066 ft | 240 kts | 138° |
| 2026-04-29 19:38 | -11.87284 | 27.72731 | 17067 ft | 240 kts | 138° |
| 2026-04-29 19:38 | -11.88572 | 27.73786 | 17072 ft | 240 kts | 138° |
| 2026-04-29 19:39 | -11.89876 | 27.74858 | 17070 ft | 241 kts | 138° |
| 2026-04-29 19:39 | -11.91183 | 27.75929 | 17068 ft | 241 kts | 138° |
| 2026-04-29 19:39 | -11.92491 | 27.77002 | 17073 ft | 241 kts | 138° |
| 2026-04-29 19:39 | -11.93801 | 27.78076 | 17070 ft | 242 kts | 138° |
| 2026-04-29 19:40 | -11.95109 | 27.79151 | 17069 ft | 242 kts | 138° |
| 2026-04-29 19:40 | -11.96420 | 27.80226 | 17069 ft | 242 kts | 138° |
| 2026-04-29 19:40 | -11.97729 | 27.81301 | 17068 ft | 242 kts | 138° |
| 2026-04-29 19:40 | -11.99043 | 27.82379 | 17072 ft | 242 kts | 138° |
| 2026-04-29 19:41 | -12.00337 | 27.83443 | 17073 ft | 242 kts | 138° |
| 2026-04-29 19:41 | -12.01644 | 27.84529 | 17072 ft | 242 kts | 137° |
| 2026-04-29 19:41 | -12.02944 | 27.85620 | 17071 ft | 242 kts | 137° |
| 2026-04-29 19:41 | -12.04248 | 27.86706 | 17074 ft | 242 kts | 137° |
| 2026-04-29 19:42 | -12.05551 | 27.87793 | 17074 ft | 242 kts | 137° |
| 2026-04-29 19:42 | -12.05992 | 27.88160 | 17074 ft | 242 kts | 137° |
| 2026-04-29 19:42 | -12.08157 | 27.89964 | 17076 ft | 241 kts | 137° |
| 2026-04-29 19:42 | -12.09457 | 27.91050 | 17076 ft | 241 kts | 138° |
| 2026-04-29 19:43 | -12.10759 | 27.92134 | 17078 ft | 241 kts | 137° |
| 2026-04-29 19:43 | -12.12043 | 27.93206 | 17078 ft | 242 kts | 137° |
| 2026-04-29 19:43 | -12.13347 | 27.94293 | 17080 ft | 242 kts | 137° |
| 2026-04-29 19:43 | -12.14649 | 27.95379 | 17080 ft | 242 kts | 137° |
| 2026-04-29 19:44 | -12.15952 | 27.96467 | 17084 ft | 242 kts | 137° |
| 2026-04-29 19:44 | -12.17255 | 27.97554 | 17083 ft | 242 kts | 137° |
| 2026-04-29 19:44 | -12.18557 | 27.98641 | 17080 ft | 242 kts | 137° |
| 2026-04-29 19:44 | -12.19859 | 27.99728 | 17084 ft | 242 kts | 137° |
| 2026-04-29 19:45 | -12.21162 | 28.00816 | 17081 ft | 242 kts | 137° |
| 2026-04-29 19:45 | -12.22466 | 28.01904 | 17083 ft | 242 kts | 137° |
| 2026-04-29 19:45 | -12.23768 | 28.02992 | 17082 ft | 242 kts | 137° |
| 2026-04-29 19:45 | -12.25055 | 28.04066 | 17083 ft | 242 kts | 137° |
| 2026-04-29 19:46 | -12.26356 | 28.05154 | 17084 ft | 242 kts | 138° |
| 2026-04-29 19:46 | -12.27658 | 28.06241 | 17084 ft | 242 kts | 137° |
| 2026-04-29 19:46 | -12.28960 | 28.07330 | 17083 ft | 242 kts | 137° |
| 2026-04-29 19:46 | -12.30262 | 28.08417 | 17081 ft | 242 kts | 137° |
| 2026-04-29 19:47 | -12.31562 | 28.09503 | 17087 ft | 241 kts | 138° |
| 2026-04-29 19:47 | -12.32864 | 28.10591 | 17086 ft | 241 kts | 137° |
| 2026-04-29 19:47 | -12.34163 | 28.11678 | 17085 ft | 242 kts | 138° |
| 2026-04-29 19:47 | -12.35464 | 28.12766 | 17084 ft | 242 kts | 137° |
| 2026-04-29 19:48 | -12.36765 | 28.13852 | 17082 ft | 241 kts | 138° |
| 2026-04-29 19:48 | -12.37628 | 28.14570 | 17083 ft | 241 kts | 138° |
| 2026-04-29 19:48 | -12.39351 | 28.16010 | 17086 ft | 241 kts | 138° |
| 2026-04-29 19:48 | -12.40652 | 28.17096 | 17086 ft | 241 kts | 138° |
| 2026-04-29 19:49 | -12.41952 | 28.18183 | 17086 ft | 241 kts | 138° |
| 2026-04-29 19:49 | -12.43252 | 28.19267 | 17084 ft | 241 kts | 138° |
| 2026-04-29 19:49 | -12.44552 | 28.20354 | 17084 ft | 241 kts | 138° |
| 2026-04-29 19:49 | -12.45854 | 28.21440 | 17087 ft | 241 kts | 138° |
| 2026-04-29 19:50 | -12.47155 | 28.22528 | 17087 ft | 241 kts | 138° |
| 2026-04-29 19:50 | -12.48455 | 28.23614 | 17088 ft | 242 kts | 138° |
| 2026-04-29 19:50 | -12.49738 | 28.24687 | 17088 ft | 242 kts | 137° |
| 2026-04-29 19:50 | -12.51040 | 28.25774 | 17088 ft | 242 kts | 137° |
| 2026-04-29 19:51 | -12.52341 | 28.26863 | 17089 ft | 242 kts | 137° |
| 2026-04-29 19:51 | -12.53643 | 28.27951 | 17089 ft | 242 kts | 138° |
| 2026-04-29 19:51 | -12.54944 | 28.29040 | 17090 ft | 242 kts | 137° |
| 2026-04-29 19:51 | -12.56246 | 28.30128 | 17092 ft | 242 kts | 138° |
| 2026-04-29 19:52 | -12.57549 | 28.31217 | 17089 ft | 242 kts | 137° |
| 2026-04-29 19:52 | -12.58851 | 28.32306 | 17092 ft | 242 kts | 138° |
| 2026-04-29 19:52 | -12.60153 | 28.33396 | 17089 ft | 242 kts | 137° |
| 2026-04-29 19:52 | -12.61437 | 28.34471 | 17090 ft | 242 kts | 137° |
| 2026-04-29 19:53 | -12.62739 | 28.35559 | 17093 ft | 242 kts | 137° |
| 2026-04-29 19:53 | -12.64040 | 28.36650 | 17092 ft | 242 kts | 137° |
| 2026-04-29 19:53 | -12.65342 | 28.37738 | 17094 ft | 241 kts | 137° |
| 2026-04-29 19:53 | -12.66641 | 28.38827 | 17093 ft | 242 kts | 137° |
| 2026-04-29 19:54 | -12.69242 | 28.41004 | 17091 ft | 241 kts | 137° |
| 2026-04-29 19:54 | -12.70541 | 28.42092 | 17093 ft | 241 kts | 137° |
| 2026-04-29 19:54 | -12.71838 | 28.43179 | 17095 ft | 241 kts | 137° |
| 2026-04-29 19:55 | -12.73137 | 28.44266 | 17093 ft | 241 kts | 137° |
| 2026-04-29 19:55 | -12.74416 | 28.45339 | 17099 ft | 241 kts | 137° |
| 2026-04-29 19:55 | -12.75715 | 28.46427 | 17095 ft | 241 kts | 137° |
| 2026-04-29 19:55 | -12.77013 | 28.47515 | 17101 ft | 241 kts | 137° |
| 2026-04-29 19:56 | -12.78309 | 28.48601 | 17099 ft | 241 kts | 137° |
| 2026-04-29 19:56 | -12.79604 | 28.49687 | 17101 ft | 241 kts | 137° |
| 2026-04-29 19:56 | -12.80901 | 28.50774 | 17102 ft | 241 kts | 137° |
| 2026-04-29 19:56 | -12.82195 | 28.51860 | 17105 ft | 241 kts | 137° |
| 2026-04-29 19:57 | -12.83491 | 28.52946 | 17100 ft | 241 kts | 137° |
| 2026-04-29 19:57 | -12.84347 | 28.53664 | 17102 ft | 240 kts | 137° |
| 2026-04-29 19:57 | -12.86062 | 28.55103 | 17102 ft | 241 kts | 137° |
| 2026-04-29 19:57 | -12.87357 | 28.56190 | 17106 ft | 241 kts | 137° |
| 2026-04-29 19:58 | -12.88652 | 28.57276 | 17107 ft | 241 kts | 137° |
| 2026-04-29 19:58 | -12.89945 | 28.58363 | 17108 ft | 240 kts | 137° |
| 2026-04-29 19:58 | -12.91240 | 28.59448 | 17109 ft | 240 kts | 137° |
| 2026-04-29 19:58 | -12.92532 | 28.60534 | 17105 ft | 240 kts | 137° |
| 2026-04-29 19:59 | -12.93825 | 28.61618 | 17108 ft | 240 kts | 137° |
| 2026-04-29 19:59 | -12.95117 | 28.62704 | 17106 ft | 240 kts | 137° |
| 2026-04-29 19:59 | -12.96390 | 28.63773 | 17110 ft | 240 kts | 137° |
| 2026-04-29 19:59 | -12.97681 | 28.64858 | 17112 ft | 240 kts | 137° |
| 2026-04-29 20:00 | -12.98984 | 28.65927 | 17100 ft | 240 kts | 142° |
| 2026-04-29 20:00 | -13.00529 | 28.66588 | 17094 ft | 244 kts | 167° |
| 2026-04-29 20:00 | -13.02228 | 28.66568 | 17112 ft | 246 kts | 186° |
| 2026-04-29 20:00 | -13.03914 | 28.66274 | 17113 ft | 246 kts | 187° |
| 2026-04-29 20:01 | -13.05605 | 28.66035 | 17117 ft | 245 kts | 183° |
| 2026-04-29 20:01 | -13.07281 | 28.65881 | 17117 ft | 245 kts | 182° |
| 2026-04-29 20:01 | -13.08980 | 28.65716 | 17116 ft | 245 kts | 183° |
| 2026-04-29 20:01 | -13.10678 | 28.65534 | 17117 ft | 245 kts | 184° |
| 2026-04-29 20:02 | -13.12376 | 28.65355 | 17112 ft | 246 kts | 184° |
| 2026-04-29 20:02 | -13.14077 | 28.65176 | 17113 ft | 246 kts | 183° |
| 2026-04-29 20:02 | -13.15780 | 28.64998 | 17114 ft | 246 kts | 184° |
| 2026-04-29 20:02 | -13.16353 | 28.64938 | 17116 ft | 246 kts | 183° |
| 2026-04-29 20:03 | -13.18610 | 28.64702 | 17114 ft | 246 kts | 183° |
| 2026-04-29 20:03 | -13.20315 | 28.64524 | 17113 ft | 247 kts | 184° |
| 2026-04-29 20:03 | -13.22577 | 28.64287 | 17117 ft | 247 kts | 183° |
| 2026-04-29 20:03 | -13.24285 | 28.64107 | 17117 ft | 247 kts | 184° |
| 2026-04-29 20:04 | -13.25994 | 28.63929 | 17122 ft | 247 kts | 184° |
| 2026-04-29 20:04 | -13.27125 | 28.63810 | 17120 ft | 247 kts | 184° |
| 2026-04-29 20:04 | -13.28834 | 28.63631 | 17124 ft | 247 kts | 184° |
| 2026-04-29 20:04 | -13.30545 | 28.63452 | 17121 ft | 247 kts | 184° |
| 2026-04-29 20:05 | -13.32257 | 28.63272 | 17120 ft | 247 kts | 184° |
| 2026-04-29 20:05 | -13.33968 | 28.63093 | 17122 ft | 247 kts | 184° |
| 2026-04-29 20:05 | -13.35679 | 28.62913 | 17124 ft | 247 kts | 184° |
| 2026-04-29 20:05 | -13.37949 | 28.62675 | 17126 ft | 248 kts | 184° |
| 2026-04-29 20:06 | -13.39108 | 28.62554 | 17125 ft | 248 kts | 184° |
| 2026-04-29 20:06 | -13.40819 | 28.62374 | 17126 ft | 248 kts | 184° |
| 2026-04-29 20:06 | -13.42513 | 28.62196 | 17130 ft | 248 kts | 184° |
| 2026-04-29 20:06 | -13.44228 | 28.62016 | 17127 ft | 248 kts | 184° |
| 2026-04-29 20:07 | -13.45942 | 28.61837 | 17126 ft | 248 kts | 184° |
| 2026-04-29 20:07 | -13.47655 | 28.61656 | 17124 ft | 248 kts | 183° |
| 2026-04-29 20:07 | -13.49370 | 28.61476 | 17126 ft | 248 kts | 184° |
| 2026-04-29 20:07 | -13.51086 | 28.61297 | 17128 ft | 248 kts | 184° |
| 2026-04-29 20:08 | -13.52799 | 28.61116 | 17127 ft | 248 kts | 184° |
| 2026-04-29 20:08 | -13.53935 | 28.60996 | 17127 ft | 248 kts | 184° |
| 2026-04-29 20:08 | -13.56230 | 28.60756 | 17126 ft | 248 kts | 184° |
| 2026-04-29 20:08 | -13.57922 | 28.60578 | 17129 ft | 248 kts | 184° |
| 2026-04-29 20:09 | -13.59637 | 28.60398 | 17132 ft | 248 kts | 184° |
| 2026-04-29 20:09 | -13.61353 | 28.60218 | 17130 ft | 248 kts | 184° |
| 2026-04-29 20:09 | -13.63068 | 28.60037 | 17132 ft | 248 kts | 184° |
| 2026-04-29 20:09 | -13.64784 | 28.59858 | 17131 ft | 248 kts | 184° |
| 2026-04-29 20:10 | -13.66502 | 28.59676 | 17131 ft | 248 kts | 184° |
| 2026-04-29 20:10 | -13.68221 | 28.59495 | 17132 ft | 248 kts | 184° |
| 2026-04-29 20:10 | -13.69939 | 28.59314 | 17132 ft | 248 kts | 184° |
| 2026-04-29 20:10 | -13.71658 | 28.59134 | 17132 ft | 248 kts | 183° |
| 2026-04-29 20:11 | -13.73353 | 28.58956 | 17132 ft | 248 kts | 184° |
| 2026-04-29 20:11 | -13.75070 | 28.58774 | 17133 ft | 248 kts | 184° |
| 2026-04-29 20:11 | -13.76787 | 28.58595 | 17132 ft | 248 kts | 184° |
| 2026-04-29 20:11 | -13.78504 | 28.58413 | 17132 ft | 248 kts | 184° |
| 2026-04-29 20:12 | -13.80223 | 28.58233 | 17133 ft | 248 kts | 184° |
| 2026-04-29 20:12 | -13.81941 | 28.58052 | 17133 ft | 248 kts | 184° |
| 2026-04-29 20:12 | -13.83659 | 28.57871 | 17135 ft | 248 kts | 184° |
| 2026-04-29 20:12 | -13.85377 | 28.57689 | 17137 ft | 248 kts | 184° |
| 2026-04-29 20:13 | -13.87071 | 28.57512 | 17136 ft | 248 kts | 184° |
| 2026-04-29 20:13 | -13.88790 | 28.57330 | 17132 ft | 248 kts | 184° |
| 2026-04-29 20:13 | -13.90509 | 28.57150 | 17132 ft | 248 kts | 184° |
| 2026-04-29 20:13 | -13.92226 | 28.56968 | 17134 ft | 248 kts | 184° |
| 2026-04-29 20:14 | -13.93944 | 28.56788 | 17135 ft | 248 kts | 184° |
| 2026-04-29 20:14 | -13.95664 | 28.56606 | 17133 ft | 248 kts | 184° |
| 2026-04-29 20:14 | -13.97382 | 28.56425 | 17133 ft | 248 kts | 184° |
| 2026-04-29 20:14 | -13.99102 | 28.56244 | 17135 ft | 248 kts | 184° |
| 2026-04-29 20:15 | -14.00799 | 28.56066 | 17133 ft | 248 kts | 184° |
| 2026-04-29 20:15 | -14.02518 | 28.55885 | 17135 ft | 248 kts | 184° |
| 2026-04-29 20:15 | -14.04239 | 28.55704 | 17136 ft | 249 kts | 184° |
| 2026-04-29 20:15 | -14.05958 | 28.55522 | 17133 ft | 249 kts | 184° |
| 2026-04-29 20:16 | -14.07679 | 28.55342 | 17133 ft | 249 kts | 184° |
| 2026-04-29 20:16 | -14.09399 | 28.55160 | 17129 ft | 249 kts | 184° |
| 2026-04-29 20:16 | -14.11119 | 28.54980 | 17129 ft | 248 kts | 184° |
| 2026-04-29 20:16 | -14.12838 | 28.54798 | 17128 ft | 248 kts | 184° |
| 2026-04-29 20:17 | -14.14557 | 28.54617 | 17133 ft | 248 kts | 184° |
| 2026-04-29 20:17 | -14.16253 | 28.54439 | 17133 ft | 248 kts | 184° |
| 2026-04-29 20:17 | -14.17974 | 28.54257 | 17132 ft | 248 kts | 184° |
| 2026-04-29 20:17 | -14.19694 | 28.54076 | 17132 ft | 249 kts | 184° |
| 2026-04-29 20:18 | -14.21416 | 28.53895 | 17131 ft | 249 kts | 184° |
| 2026-04-29 20:18 | -14.23137 | 28.53713 | 17133 ft | 249 kts | 184° |
| 2026-04-29 20:18 | -14.24858 | 28.53532 | 17134 ft | 249 kts | 184° |
| 2026-04-29 20:18 | -14.26581 | 28.53351 | 17135 ft | 249 kts | 184° |
| 2026-04-29 20:19 | -14.28303 | 28.53168 | 17135 ft | 249 kts | 184° |
| 2026-04-29 20:19 | -14.30002 | 28.52990 | 17133 ft | 249 kts | 184° |
| 2026-04-29 20:19 | -14.31724 | 28.52807 | 17132 ft | 249 kts | 184° |
| 2026-04-29 20:19 | -14.33449 | 28.52626 | 17132 ft | 249 kts | 184° |
| 2026-04-29 20:20 | -14.35172 | 28.52444 | 17133 ft | 249 kts | 184° |
| 2026-04-29 20:20 | -14.36897 | 28.52262 | 17135 ft | 249 kts | 184° |
| 2026-04-29 20:20 | -14.38622 | 28.52080 | 17135 ft | 249 kts | 184° |
| 2026-04-29 20:20 | -14.40348 | 28.51898 | 17135 ft | 249 kts | 184° |
| 2026-04-29 20:21 | -14.42075 | 28.51715 | 17139 ft | 249 kts | 184° |
| 2026-04-29 20:21 | -14.43802 | 28.51533 | 17137 ft | 250 kts | 184° |
| 2026-04-29 20:21 | -14.45507 | 28.51352 | 17138 ft | 250 kts | 184° |
| 2026-04-29 20:21 | -14.47234 | 28.51170 | 17137 ft | 250 kts | 184° |
| 2026-04-29 20:22 | -14.48962 | 28.50988 | 17139 ft | 250 kts | 184° |
| 2026-04-29 20:22 | -14.50690 | 28.50805 | 17138 ft | 250 kts | 184° |
| 2026-04-29 20:22 | -14.52419 | 28.50623 | 17139 ft | 250 kts | 184° |
| 2026-04-29 20:22 | -14.54145 | 28.50440 | 17142 ft | 250 kts | 184° |
| 2026-04-29 20:23 | -14.55891 | 28.50256 | 16942 ft | 254 kts | 184° |
| 2026-04-29 20:23 | -14.57639 | 28.50072 | 16713 ft | 257 kts | 184° |
| 2026-04-29 20:23 | -14.59426 | 28.49881 | 16501 ft | 259 kts | 184° |
| 2026-04-29 20:23 | -14.61224 | 28.49692 | 16300 ft | 260 kts | 184° |
| 2026-04-29 20:24 | -14.63027 | 28.49501 | 16106 ft | 261 kts | 184° |
| 2026-04-29 20:24 | -14.64834 | 28.49310 | 15912 ft | 262 kts | 184° |
| 2026-04-29 20:24 | -14.66659 | 28.49116 | 15637 ft | 265 kts | 184° |
| 2026-04-29 20:24 | -14.68500 | 28.48922 | 15379 ft | 267 kts | 184° |
| 2026-04-29 20:25 | -14.70352 | 28.48725 | 15134 ft | 268 kts | 184° |
| 2026-04-29 20:25 | -14.72183 | 28.48532 | 14900 ft | 269 kts | 184° |
| 2026-04-29 20:25 | -14.74043 | 28.48334 | 14665 ft | 269 kts | 184° |
| 2026-04-29 20:25 | -14.75905 | 28.48138 | 14440 ft | 269 kts | 185° |
| 2026-04-29 20:26 | -14.77768 | 28.47940 | 14219 ft | 269 kts | 185° |
| 2026-04-29 20:26 | -14.79628 | 28.47743 | 14005 ft | 269 kts | 185° |
| 2026-04-29 20:26 | -14.81489 | 28.47546 | 13775 ft | 269 kts | 185° |
| 2026-04-29 20:26 | -14.83347 | 28.47349 | 13538 ft | 268 kts | 185° |
| 2026-04-29 20:27 | -14.85201 | 28.47152 | 13307 ft | 268 kts | 185° |
| 2026-04-29 20:27 | -14.86429 | 28.47023 | 13121 ft | 269 kts | 185° |
| 2026-04-29 20:27 | -14.88905 | 28.46760 | 12679 ft | 271 kts | 184° |
| 2026-04-29 20:27 | -14.90786 | 28.46560 | 12372 ft | 272 kts | 184° |
| 2026-04-29 20:28 | -14.92674 | 28.46359 | 12071 ft | 273 kts | 184° |
| 2026-04-29 20:28 | -14.94567 | 28.46159 | 11782 ft | 274 kts | 184° |
| 2026-04-29 20:28 | -14.96461 | 28.45959 | 11495 ft | 274 kts | 184° |
| 2026-04-29 20:28 | -14.98356 | 28.45757 | 11216 ft | 274 kts | 184° |
| 2026-04-29 20:29 | -15.00249 | 28.45556 | 10940 ft | 273 kts | 184° |
| 2026-04-29 20:29 | -15.02140 | 28.45355 | 10661 ft | 273 kts | 184° |
| 2026-04-29 20:29 | -15.04028 | 28.45155 | 10391 ft | 273 kts | 183° |
| 2026-04-29 20:29 | -15.05888 | 28.44957 | 10136 ft | 272 kts | 183° |
| 2026-04-29 20:30 | -15.07774 | 28.44757 | 9872 ft | 272 kts | 183° |
| 2026-04-29 20:30 | -15.09653 | 28.44557 | 9590 ft | 271 kts | 183° |
| 2026-04-29 20:30 | -15.11531 | 28.44358 | 9308 ft | 271 kts | 182° |
| 2026-04-29 20:30 | -15.13404 | 28.44158 | 9031 ft | 271 kts | 182° |
| 2026-04-29 20:31 | -15.15275 | 28.43959 | 8774 ft | 270 kts | 182° |
| 2026-04-29 20:31 | -15.17146 | 28.43761 | 8510 ft | 270 kts | 182° |
| 2026-04-29 20:31 | -15.19015 | 28.43562 | 8251 ft | 270 kts | 182° |
| 2026-04-29 20:31 | -15.20880 | 28.43363 | 7997 ft | 269 kts | 182° |
| 2026-04-29 20:32 | -15.22719 | 28.43168 | 7755 ft | 269 kts | 181° |
| 2026-04-29 20:32 | -15.24566 | 28.42970 | 7498 ft | 263 kts | 181° |
| 2026-04-29 20:32 | -15.26369 | 28.42778 | 7231 ft | 258 kts | 181° |
| 2026-04-29 20:32 | -15.28136 | 28.42590 | 6947 ft | 253 kts | 180° |
| 2026-04-29 20:33 | -15.29879 | 28.42404 | 6676 ft | 250 kts | 180° |
| 2026-04-29 20:33 | -15.31600 | 28.42211 | 6388 ft | 248 kts | 182° |
| 2026-04-29 20:33 | -15.33241 | 28.41599 | 6047 ft | 257 kts | 205° |
| 2026-04-29 20:33 | -15.34647 | 28.40444 | 5757 ft | 256 kts | 213° |
| 2026-04-29 20:34 | -15.36060 | 28.39344 | 5497 ft | 253 kts | 210° |
| 2026-04-29 20:34 | -15.37456 | 28.38296 | 5346 ft | 244 kts | 210° |
| 2026-04-29 20:34 | -15.38753 | 28.37300 | 5359 ft | 220 kts | 210° |
| 2026-04-29 20:34 | -15.39853 | 28.36316 | 5260 ft | 202 kts | 219° |
| 2026-04-29 20:35 | -15.40776 | 28.35270 | 4648 ft | 193 kts | 229° |
| 2026-04-29 20:35 | -15.41108 | 28.34019 | 4268 ft | 168 kts | 254° |
| 2026-04-29 20:35 | -15.41412 | 28.32999 | 4200 ft | 125 kts | 251° |
| 2026-04-29 20:35 | -15.41567 | 28.32504 | 4199 ft | 23 kts | 252° |
| 2026-04-29 20:36 | -15.41534 | 28.32417 | 4199 ft | 0 kts | 314° |